BAW104 TNCM-KJFK
Flight info
| Callsign | BAW104 |
|---|---|
| Flight time | N/A |
| Altitude | 40000 |
| Route | TRNKY DCT CAFFE DCT THANK L456 DARUX L459 SAVIK DCT |
| Aircraft | B744/H-VGD/A |
Departure
| Time | 2026-05-04 09:05 |
|---|---|
| Airport | Princess Juliana International Airport (TNCM) |
Arrival
| Time | N/A |
|---|---|
| Airport | John F. Kennedy International Airport (KJFK) |
| Time | Latitude | Longitude | Altitude | Speed | Heading |
|---|---|---|---|---|---|
| 2026-05-04 08:38 | 18.04274 | -63.11497 | 26 ft | 0 kts | 351° |
| 2026-05-04 08:57 | 18.04197 | -63.11464 | 27 ft | 1 kts | 302° |
| 2026-05-04 09:01 | 18.04192 | -63.11414 | 27 ft | 0 kts | 264° |
| 2026-05-04 09:02 | 18.04192 | -63.11415 | 27 ft | 2 kts | 264° |
| 2026-05-04 09:02 | 18.04180 | -63.11495 | 27 ft | 13 kts | 245° |
| 2026-05-04 09:02 | 18.04129 | -63.11569 | 27 ft | 12 kts | 229° |
| 2026-05-04 09:02 | 18.04074 | -63.11636 | 27 ft | 12 kts | 233° |
| 2026-05-04 09:03 | 18.04058 | -63.11718 | 27 ft | 11 kts | 262° |
| 2026-05-04 09:03 | 18.04048 | -63.11799 | 27 ft | 11 kts | 263° |
| 2026-05-04 09:03 | 18.04036 | -63.11876 | 27 ft | 10 kts | 252° |
| 2026-05-04 09:03 | 18.04000 | -63.11939 | 27 ft | 10 kts | 210° |
| 2026-05-04 09:04 | 18.03940 | -63.11917 | 27 ft | 9 kts | 118° |
| 2026-05-04 09:04 | 18.03949 | -63.11863 | 27 ft | 6 kts | 77° |
| 2026-05-04 09:04 | 18.03957 | -63.11818 | 27 ft | 6 kts | 81° |
| 2026-05-04 09:04 | 18.03980 | -63.11659 | 27 ft | 58 kts | 81° |
| 2026-05-04 09:05 | 18.04087 | -63.10884 | 30 ft | 148 kts | 82° |
| 2026-05-04 09:05 | 18.04242 | -63.09732 | 658 ft | 167 kts | 82° |
| 2026-05-04 09:05 | 18.04310 | -63.08506 | 1678 ft | 172 kts | 94° |
| 2026-05-04 09:05 | 18.03766 | -63.07374 | 2376 ft | 184 kts | 127° |
| 2026-05-04 09:06 | 18.02558 | -63.06696 | 2745 ft | 212 kts | 159° |
| 2026-05-04 09:07 | 17.99198 | -63.15673 | 8486 ft | 294 kts | 331° |
| 2026-05-04 09:08 | 18.01086 | -63.16418 | 9424 ft | 291 kts | 349° |
| 2026-05-04 09:08 | 18.03129 | -63.16638 | 10341 ft | 295 kts | 359° |
| 2026-05-04 09:08 | 18.05229 | -63.16777 | 10906 ft | 315 kts | 357° |
| 2026-05-04 09:08 | 18.07516 | -63.16914 | 11135 ft | 345 kts | 357° |
| 2026-05-04 09:10 | 18.21966 | -63.17784 | 14134 ft | 427 kts | 356° |
| 2026-05-04 09:10 | 18.24961 | -63.17966 | 15021 ft | 432 kts | 356° |
| 2026-05-04 09:10 | 18.27987 | -63.18149 | 15870 ft | 438 kts | 356° |
| 2026-05-04 09:10 | 18.31062 | -63.18336 | 16650 ft | 446 kts | 355° |
| 2026-05-04 09:11 | 18.34196 | -63.18526 | 17440 ft | 452 kts | 355° |
| 2026-05-04 09:11 | 18.37338 | -63.18719 | 18263 ft | 457 kts | 355° |
| 2026-05-04 09:11 | 18.40439 | -63.19330 | 18984 ft | 460 kts | 341° |
| 2026-05-04 09:11 | 18.43326 | -63.20789 | 19708 ft | 464 kts | 329° |
| 2026-05-04 09:12 | 18.46016 | -63.22694 | 20384 ft | 469 kts | 323° |
| 2026-05-04 09:12 | 18.48602 | -63.24834 | 21020 ft | 474 kts | 320° |
| 2026-05-04 09:14 | 18.65646 | -63.40637 | 24912 ft | 505 kts | 319° |
| 2026-05-04 09:14 | 18.68306 | -63.43084 | 25523 ft | 507 kts | 319° |
| 2026-05-04 09:14 | 18.70976 | -63.45525 | 26063 ft | 510 kts | 319° |
| 2026-05-04 09:14 | 18.74531 | -63.48779 | 26729 ft | 513 kts | 319° |
| 2026-05-04 09:15 | 18.76348 | -63.50445 | 27060 ft | 515 kts | 319° |
| 2026-05-04 09:15 | 18.79062 | -63.52935 | 27534 ft | 517 kts | 319° |
| 2026-05-04 09:15 | 18.81752 | -63.55405 | 28090 ft | 516 kts | 319° |
| 2026-05-04 09:15 | 18.84457 | -63.57891 | 28863 ft | 511 kts | 319° |
| 2026-05-04 09:17 | 19.05449 | -63.77222 | 34048 ft | 494 kts | 318° |
| 2026-05-04 09:18 | 19.08049 | -63.79621 | 34584 ft | 492 kts | 318° |
| 2026-05-04 09:18 | 19.10617 | -63.81991 | 35176 ft | 489 kts | 318° |
| 2026-05-04 09:18 | 19.13175 | -63.84353 | 35630 ft | 488 kts | 318° |
| 2026-05-04 09:18 | 19.15727 | -63.86711 | 36139 ft | 486 kts | 318° |
| 2026-05-04 09:19 | 19.18271 | -63.89063 | 36563 ft | 484 kts | 319° |
| 2026-05-04 09:19 | 19.20780 | -63.91383 | 37052 ft | 482 kts | 319° |
| 2026-05-04 09:19 | 19.23298 | -63.93712 | 37548 ft | 479 kts | 319° |
| 2026-05-04 09:19 | 19.25797 | -63.96025 | 37939 ft | 477 kts | 319° |
| 2026-05-04 09:20 | 19.28294 | -63.98337 | 38309 ft | 477 kts | 319° |
| 2026-05-04 09:20 | 19.30791 | -64.00649 | 38713 ft | 474 kts | 319° |
| 2026-05-04 09:20 | 19.33261 | -64.02938 | 39151 ft | 471 kts | 319° |
| 2026-05-04 09:20 | 19.35729 | -64.05226 | 39504 ft | 469 kts | 319° |
| 2026-05-04 09:21 | 19.38178 | -64.07497 | 39825 ft | 467 kts | 319° |
| 2026-05-04 09:21 | 19.40623 | -64.09766 | 40075 ft | 468 kts | 319° |
| 2026-05-04 09:21 | 19.45520 | -64.14312 | 40090 ft | 467 kts | 319° |
| 2026-05-04 09:22 | 19.50371 | -64.18819 | 40090 ft | 466 kts | 319° |
| 2026-05-04 09:22 | 19.55258 | -64.23364 | 40090 ft | 466 kts | 319° |
| 2026-05-04 09:23 | 19.60137 | -64.27905 | 40090 ft | 466 kts | 319° |
| 2026-05-04 09:23 | 19.65015 | -64.32449 | 40089 ft | 466 kts | 319° |
| 2026-05-04 09:25 | 19.84491 | -64.50630 | 40087 ft | 466 kts | 319° |
| 2026-05-04 09:26 | 19.89370 | -64.55178 | 40084 ft | 466 kts | 319° |
| 2026-05-04 09:26 | 19.94212 | -64.59714 | 40083 ft | 466 kts | 319° |
| 2026-05-04 09:27 | 19.99090 | -64.64292 | 40083 ft | 466 kts | 319° |
| 2026-05-04 09:27 | 20.03947 | -64.68852 | 40082 ft | 466 kts | 319° |
| 2026-05-04 09:28 | 20.08801 | -64.73411 | 40083 ft | 465 kts | 318° |
| 2026-05-04 09:28 | 20.13613 | -64.77977 | 40083 ft | 465 kts | 318° |
| 2026-05-04 09:29 | 20.18436 | -64.82567 | 40082 ft | 465 kts | 318° |
| 2026-05-04 09:29 | 20.23257 | -64.87160 | 40082 ft | 465 kts | 318° |
| 2026-05-04 09:30 | 20.28079 | -64.91760 | 40082 ft | 465 kts | 318° |
| 2026-05-04 09:30 | 20.32905 | -64.96367 | 40081 ft | 465 kts | 318° |
| 2026-05-04 09:31 | 20.37702 | -65.00930 | 40085 ft | 465 kts | 318° |
| 2026-05-04 09:31 | 20.42541 | -65.05537 | 40086 ft | 465 kts | 318° |
| 2026-05-04 09:32 | 20.47361 | -65.10138 | 40086 ft | 465 kts | 317° |
| 2026-05-04 09:34 | 20.66599 | -65.28557 | 40060 ft | 464 kts | 317° |
| 2026-05-04 09:34 | 20.71402 | -65.33167 | 40060 ft | 464 kts | 317° |
| 2026-05-04 09:35 | 20.76183 | -65.37759 | 40060 ft | 464 kts | 317° |
| 2026-05-04 09:35 | 20.80984 | -65.42374 | 40059 ft | 463 kts | 317° |
| 2026-05-04 09:37 | 21.00022 | -65.60719 | 40059 ft | 462 kts | 316° |
| 2026-05-04 09:38 | 21.04876 | -65.65407 | 40058 ft | 462 kts | 316° |
| 2026-05-04 09:38 | 21.09653 | -65.70024 | 40057 ft | 462 kts | 316° |
| 2026-05-04 09:39 | 21.14421 | -65.74637 | 40057 ft | 461 kts | 316° |
| 2026-05-04 09:39 | 21.19158 | -65.79225 | 40061 ft | 461 kts | 316° |
| 2026-05-04 09:40 | 21.23919 | -65.83828 | 40060 ft | 461 kts | 316° |
| 2026-05-04 09:40 | 21.28681 | -65.88442 | 40060 ft | 461 kts | 316° |
| 2026-05-04 09:42 | 21.45546 | -66.04236 | 40076 ft | 462 kts | 331° |
| 2026-05-04 09:43 | 21.51684 | -66.06474 | 40069 ft | 470 kts | 342° |
| 2026-05-04 09:43 | 21.54890 | -66.07241 | 40073 ft | 471 kts | 345° |
| 2026-05-04 09:43 | 21.61364 | -66.08489 | 40074 ft | 472 kts | 346° |
| 2026-05-04 09:44 | 21.67789 | -66.09759 | 40073 ft | 473 kts | 346° |
| 2026-05-04 09:46 | 21.93670 | -66.15040 | 40077 ft | 473 kts | 346° |
| 2026-05-04 09:46 | 22.00118 | -66.16364 | 40077 ft | 473 kts | 346° |
| 2026-05-04 09:47 | 22.06594 | -66.17689 | 40077 ft | 473 kts | 346° |
| 2026-05-04 09:49 | 22.32441 | -66.22969 | 40077 ft | 473 kts | 346° |
| 2026-05-04 09:51 | 22.55104 | -66.27605 | 40076 ft | 473 kts | 345° |
| 2026-05-04 09:51 | 22.61578 | -66.28933 | 40077 ft | 474 kts | 345° |
| 2026-05-04 09:52 | 22.68063 | -66.30262 | 40076 ft | 474 kts | 345° |
| 2026-05-04 09:52 | 22.74498 | -66.31587 | 40076 ft | 474 kts | 345° |
| 2026-05-04 09:53 | 22.80988 | -66.32925 | 40076 ft | 474 kts | 345° |
| 2026-05-04 09:53 | 22.87476 | -66.34263 | 40076 ft | 474 kts | 345° |
| 2026-05-04 09:54 | 22.93970 | -66.35603 | 40076 ft | 474 kts | 345° |
| 2026-05-04 09:54 | 23.00426 | -66.36939 | 40076 ft | 475 kts | 345° |
| 2026-05-04 09:55 | 23.06914 | -66.38284 | 40076 ft | 475 kts | 345° |
| 2026-05-04 09:55 | 23.13413 | -66.39633 | 40075 ft | 475 kts | 345° |
| 2026-05-04 09:56 | 23.19913 | -66.40984 | 40076 ft | 475 kts | 345° |
| 2026-05-04 09:56 | 23.26426 | -66.42339 | 40076 ft | 476 kts | 345° |
| 2026-05-04 09:57 | 23.32920 | -66.43684 | 40075 ft | 475 kts | 345° |
| 2026-05-04 09:57 | 23.39386 | -66.45027 | 40076 ft | 476 kts | 344° |
| 2026-05-04 09:58 | 23.45901 | -66.46383 | 40075 ft | 476 kts | 344° |
| 2026-05-04 09:58 | 23.52398 | -66.47738 | 40075 ft | 476 kts | 344° |
| 2026-05-04 10:00 | 23.77318 | -66.52947 | 40035 ft | 475 kts | 344° |
| 2026-05-04 10:04 | 24.22879 | -66.62524 | 40036 ft | 477 kts | 344° |
| 2026-05-04 10:04 | 24.29374 | -66.63895 | 40036 ft | 477 kts | 344° |
| 2026-05-04 10:05 | 24.35907 | -66.65275 | 40035 ft | 477 kts | 344° |
| 2026-05-04 10:05 | 24.42438 | -66.66657 | 40036 ft | 477 kts | 343° |
| 2026-05-04 10:06 | 24.48948 | -66.68035 | 40036 ft | 478 kts | 343° |
| 2026-05-04 10:06 | 24.55511 | -66.69426 | 40036 ft | 478 kts | 343° |
| 2026-05-04 10:08 | 24.78351 | -66.74279 | 40047 ft | 479 kts | 343° |
| 2026-05-04 10:08 | 24.84854 | -66.75664 | 40046 ft | 480 kts | 343° |
| 2026-05-04 10:09 | 24.91421 | -66.77064 | 40047 ft | 480 kts | 343° |
| 2026-05-04 10:09 | 24.97978 | -66.78464 | 40048 ft | 480 kts | 343° |
| 2026-05-04 10:10 | 25.04498 | -66.79857 | 40048 ft | 480 kts | 343° |
| 2026-05-04 10:10 | 25.11059 | -66.81261 | 40048 ft | 481 kts | 343° |
| 2026-05-04 10:11 | 25.17635 | -66.82669 | 40049 ft | 481 kts | 343° |
| 2026-05-04 10:11 | 25.24225 | -66.84081 | 40049 ft | 481 kts | 343° |
| 2026-05-04 10:12 | 25.30745 | -66.85481 | 40049 ft | 480 kts | 343° |
| 2026-05-04 10:12 | 25.37334 | -66.86896 | 40050 ft | 481 kts | 343° |
| 2026-05-04 10:13 | 25.43917 | -66.88312 | 40045 ft | 481 kts | 343° |
| 2026-05-04 10:13 | 25.50490 | -66.89728 | 40045 ft | 481 kts | 342° |
| 2026-05-04 10:14 | 25.57083 | -66.91149 | 40045 ft | 482 kts | 342° |
| 2026-05-04 10:16 | 25.83335 | -66.96824 | 40047 ft | 482 kts | 342° |
| 2026-05-04 10:16 | 25.89985 | -66.98266 | 40048 ft | 481 kts | 342° |
| 2026-05-04 10:17 | 25.96555 | -66.99692 | 40048 ft | 481 kts | 342° |
| 2026-05-04 10:19 | 26.22780 | -67.05400 | 40050 ft | 480 kts | 341° |
| 2026-05-04 10:19 | 26.29311 | -67.06825 | 40051 ft | 480 kts | 341° |
| 2026-05-04 10:20 | 26.35857 | -67.08256 | 40052 ft | 480 kts | 341° |
| 2026-05-04 10:20 | 26.42404 | -67.09688 | 40052 ft | 479 kts | 341° |
| 2026-05-04 10:21 | 26.48967 | -67.11126 | 40054 ft | 480 kts | 341° |
| 2026-05-04 10:21 | 26.55544 | -67.12568 | 40054 ft | 482 kts | 341° |
| 2026-05-04 10:22 | 26.65364 | -67.14725 | 40057 ft | 481 kts | 341° |
| 2026-05-04 10:23 | 26.71936 | -67.16170 | 40058 ft | 481 kts | 341° |
| 2026-05-04 10:25 | 26.98280 | -67.21980 | 40061 ft | 483 kts | 340° |
| 2026-05-04 10:25 | 27.04839 | -67.23432 | 40081 ft | 483 kts | 340° |
| 2026-05-04 10:26 | 27.11435 | -67.24895 | 40091 ft | 483 kts | 340° |
| 2026-05-04 10:26 | 27.18020 | -67.26359 | 40092 ft | 482 kts | 340° |
| 2026-05-04 10:27 | 27.24629 | -67.27831 | 40093 ft | 483 kts | 340° |
| 2026-05-04 10:27 | 27.31210 | -67.29300 | 40094 ft | 483 kts | 340° |
| 2026-05-04 10:28 | 27.37824 | -67.30777 | 40095 ft | 483 kts | 339° |
| 2026-05-04 10:28 | 27.44421 | -67.32248 | 40096 ft | 483 kts | 339° |
| 2026-05-04 10:29 | 27.51016 | -67.33717 | 40097 ft | 483 kts | 339° |
| 2026-05-04 10:29 | 27.52081 | -67.33955 | 40097 ft | 483 kts | 339° |
| 2026-05-04 10:30 | 27.70048 | -67.37980 | 40100 ft | 484 kts | 339° |
| 2026-05-04 10:31 | 27.76674 | -67.39468 | 40100 ft | 484 kts | 339° |
| 2026-05-04 10:32 | 27.99759 | -67.44667 | 40104 ft | 484 kts | 339° |
| 2026-05-04 10:33 | 28.06356 | -67.46154 | 40105 ft | 484 kts | 339° |
| 2026-05-04 10:33 | 28.12977 | -67.47649 | 40105 ft | 485 kts | 339° |
| 2026-05-04 10:34 | 28.19577 | -67.49146 | 40106 ft | 485 kts | 339° |
| 2026-05-04 10:34 | 28.26186 | -67.50646 | 40107 ft | 485 kts | 339° |
| 2026-05-04 10:35 | 28.32811 | -67.52151 | 40108 ft | 485 kts | 339° |
| 2026-05-04 10:35 | 28.39433 | -67.53656 | 40109 ft | 485 kts | 338° |
| 2026-05-04 10:36 | 28.46051 | -67.55160 | 40110 ft | 485 kts | 338° |
| 2026-05-04 10:36 | 28.49358 | -67.55913 | 40110 ft | 485 kts | 338° |
| 2026-05-04 10:37 | 28.66407 | -67.59806 | 40112 ft | 486 kts | 338° |
| 2026-05-04 10:39 | 28.89671 | -67.65117 | 40115 ft | 488 kts | 338° |
| 2026-05-04 10:40 | 28.96312 | -67.66640 | 40115 ft | 489 kts | 338° |
| 2026-05-04 10:40 | 29.02992 | -67.68174 | 40116 ft | 489 kts | 338° |
| 2026-05-04 10:41 | 29.09675 | -67.69711 | 40117 ft | 489 kts | 338° |
| 2026-05-04 10:41 | 29.16330 | -67.71244 | 40118 ft | 489 kts | 338° |
| 2026-05-04 10:42 | 29.22991 | -67.72780 | 40119 ft | 490 kts | 338° |
| 2026-05-04 10:42 | 29.29682 | -67.74325 | 40119 ft | 490 kts | 338° |
| 2026-05-04 10:43 | 29.36414 | -67.75882 | 40119 ft | 490 kts | 337° |
| 2026-05-04 10:45 | 29.63124 | -67.82080 | 40122 ft | 492 kts | 337° |
| 2026-05-04 10:45 | 29.69864 | -67.83649 | 40123 ft | 492 kts | 337° |
| 2026-05-04 10:46 | 29.76514 | -67.85199 | 40124 ft | 491 kts | 337° |
| 2026-05-04 10:46 | 29.82095 | -67.86502 | 40124 ft | 491 kts | 337° |